createdAt,value
2022-07-29T00:00:59.483Z,4.10
2022-07-29T00:03:27.145Z,3.90
2022-07-29T00:05:56.087Z,3.10
2022-07-29T00:08:23.499Z,4.10
2022-07-29T00:10:51.461Z,3.50
2022-07-29T00:13:32.536Z,4.10
2022-07-29T00:16:04.587Z,4.00
2022-07-29T00:18:35.013Z,3.10
2022-07-29T00:21:03.816Z,3.20
2022-07-29T00:23:36.469Z,2.70
2022-07-29T00:26:06.742Z,2.90
2022-07-29T00:28:34.583Z,2.60
2022-07-29T00:31:02.411Z,4.20
2022-07-29T00:33:30.941Z,3.70
2022-07-29T00:35:58.697Z,4.20
2022-07-29T00:38:26.255Z,4.50
2022-07-29T00:40:54.123Z,3.80
2022-07-29T00:43:21.681Z,2.80
2022-07-29T00:45:49.664Z,2.60
2022-07-29T00:48:21.613Z,3.00
2022-07-29T00:50:50.253Z,3.90
2022-07-29T00:53:17.754Z,3.00
2022-07-29T00:55:45.108Z,3.30
2022-07-29T00:58:13.902Z,4.00
2022-07-29T01:00:44.903Z,3.80
2022-07-29T01:03:13.832Z,2.70
2022-07-29T01:05:51.054Z,3.60
2022-07-29T01:08:19.928Z,4.70
2022-07-29T01:10:47.916Z,6.20
2022-07-29T01:13:15.581Z,6.40
2022-07-29T01:15:49.192Z,4.00
2022-07-29T01:18:22.159Z,4.10
2022-07-29T01:20:58.699Z,5.70
2022-07-29T01:23:48.477Z,3.10
2022-07-29T01:26:45.302Z,3.80
2022-07-29T01:29:36.020Z,3.40
2022-07-29T01:32:27.918Z,4.20
2022-07-29T01:35:17.120Z,3.90
2022-07-29T01:37:46.351Z,4.60
2022-07-29T01:40:44.499Z,4.30
2022-07-29T01:43:15.397Z,3.10
2022-07-29T01:45:46.200Z,3.30
2022-07-29T01:48:24.170Z,3.90
2022-07-29T01:51:12.929Z,3.90
2022-07-29T01:53:55.641Z,3.60
2022-07-29T01:56:24.022Z,3.70
2022-07-29T01:58:51.784Z,4.60
2022-07-29T02:01:20.944Z,3.20
2022-07-29T02:03:48.654Z,3.20
2022-07-29T02:06:20.915Z,3.40
2022-07-29T02:08:50.731Z,4.10
2022-07-29T02:11:19.834Z,2.70
2022-07-29T02:13:53.832Z,2.70
2022-07-29T02:16:25.069Z,2.60
2022-07-29T02:18:53.772Z,2.10
2022-07-29T02:21:23.991Z,1.70
2022-07-29T02:23:54.816Z,1.70
2022-07-29T02:26:23.301Z,1.50
2022-07-29T02:28:55.783Z,1.80
2022-07-29T02:31:25.479Z,2.00
2022-07-29T02:33:53.593Z,2.20
2022-07-29T02:36:22.652Z,2.50
2022-07-29T02:38:53.286Z,3.50
2022-07-29T02:41:23.591Z,1.30
2022-07-29T02:43:55.685Z,1.70
2022-07-29T02:46:34.731Z,1.70
2022-07-29T02:49:16.253Z,1.80
2022-07-29T02:51:58.717Z,1.80
2022-07-29T02:54:33.117Z,2.30
2022-07-29T02:57:02.214Z,5.40
2022-07-29T02:59:29.491Z,6.80
2022-07-29T03:01:57.058Z,3.90
2022-07-29T03:04:26.339Z,2.20
2022-07-29T03:06:53.894Z,2.90
2022-07-29T03:09:22.569Z,3.60
2022-07-29T03:11:51.058Z,4.20
2022-07-29T03:14:21.521Z,3.30
2022-07-29T03:16:49.549Z,3.00
2022-07-29T03:19:17.548Z,1.80
2022-07-29T03:21:44.871Z,2.10
2022-07-29T03:24:25.644Z,2.00
2022-07-29T03:26:53.099Z,2.20
2022-07-29T03:29:20.658Z,2.30
2022-07-29T03:31:50.437Z,3.00
2022-07-29T03:34:18.028Z,4.10
2022-07-29T03:36:51.136Z,11.70
2022-07-29T03:39:22.057Z,5.90
2022-07-29T03:41:54.020Z,6.80
2022-07-29T03:44:21.293Z,7.50
2022-07-29T03:46:49.815Z,3.40
2022-07-29T03:49:18.150Z,3.90
2022-07-29T03:51:46.816Z,11.20
2022-07-29T03:54:18.029Z,10.60
2022-07-29T03:56:48.042Z,5.10
2022-07-29T03:59:16.364Z,2.40
2022-07-29T04:01:43.667Z,2.40
2022-07-29T04:04:12.968Z,2.10
2022-07-29T04:06:42.415Z,2.60
2022-07-29T04:09:10.059Z,3.00
2022-07-29T04:12:02.383Z,3.30
2022-07-29T04:14:28.338Z,3.90
2022-07-29T04:16:57.041Z,4.10
2022-07-29T04:19:25.095Z,6.70
2022-07-29T04:21:54.644Z,4.00
2022-07-29T04:24:23.501Z,6.70
2022-07-29T04:26:57.255Z,8.10
2022-07-29T04:29:24.752Z,3.60
2022-07-29T04:31:52.219Z,3.10
2022-07-29T04:34:20.912Z,2.80
2022-07-29T04:36:48.488Z,8.00
2022-07-29T04:39:20.661Z,5.00
2022-07-29T04:41:54.920Z,5.10
2022-07-29T04:44:28.702Z,4.20
2022-07-29T04:46:57.994Z,8.90
2022-07-29T04:49:26.626Z,5.80
2022-07-29T04:51:54.090Z,5.40
2022-07-29T04:54:23.081Z,5.50
2022-07-29T04:56:53.715Z,3.50
2022-07-29T04:59:21.784Z,7.10
2022-07-29T05:01:50.619Z,15.50
2022-07-29T05:04:20.757Z,5.70
2022-07-29T05:06:50.201Z,8.70
2022-07-29T05:09:17.977Z,9.20
2022-07-29T05:11:45.837Z,13.80
2022-07-29T05:14:16.004Z,5.60
2022-07-29T05:16:44.741Z,3.90
2022-07-29T05:19:15.889Z,2.10
2022-07-29T05:21:46.004Z,2.20
2022-07-29T05:24:18.601Z,3.10
2022-07-29T05:26:46.547Z,3.20
2022-07-29T05:29:43.707Z,3.20
2022-07-29T05:32:04.812Z,2.80
2022-07-29T05:34:32.607Z,4.00
2022-07-29T05:37:00.957Z,3.00
2022-07-29T05:39:46.606Z,3.70
2022-07-29T05:42:15.625Z,3.20
2022-07-29T05:44:44.773Z,2.70
2022-07-29T05:47:12.393Z,2.70
2022-07-29T05:49:40.045Z,2.50
2022-07-29T05:52:10.164Z,2.40
2022-07-29T05:54:37.519Z,2.40
2022-07-29T05:57:06.005Z,1.90
2022-07-29T05:59:36.969Z,1.90
2022-07-29T06:02:05.936Z,2.30
2022-07-29T06:04:34.331Z,2.30
2022-07-29T06:07:02.502Z,2.20
2022-07-29T06:09:36.008Z,2.20
2022-07-29T06:12:04.481Z,2.20
2022-07-29T06:14:36.051Z,2.10
2022-07-29T06:17:04.601Z,2.10
2022-07-29T06:19:36.060Z,1.90
2022-07-29T06:22:05.967Z,2.20
2022-07-29T06:24:34.448Z,3.00
2022-07-29T06:27:03.955Z,2.40
2022-07-29T06:29:34.006Z,2.40
2022-07-29T06:32:05.117Z,2.50
2022-07-29T06:34:32.570Z,3.30
2022-07-29T06:37:00.035Z,2.70
2022-07-29T06:39:28.620Z,2.40
2022-07-29T06:41:57.606Z,3.00
2022-07-29T06:44:28.238Z,2.20
2022-07-29T06:46:58.255Z,2.20
2022-07-29T06:49:26.996Z,2.40
2022-07-29T06:51:57.284Z,2.50
2022-07-29T06:54:25.029Z,2.10
2022-07-29T06:56:52.794Z,2.60
2022-07-29T06:59:24.466Z,2.30
2022-07-29T07:01:56.188Z,2.10
2022-07-29T07:04:24.279Z,2.40
2022-07-29T07:06:52.721Z,2.60
2022-07-29T07:09:22.062Z,2.60
2022-07-29T07:11:51.160Z,2.40
2022-07-29T07:14:19.491Z,2.40
2022-07-29T07:16:47.526Z,2.10
2022-07-29T07:19:15.504Z,2.40
2022-07-29T07:21:43.238Z,2.40
2022-07-29T07:24:10.695Z,2.30
2022-07-29T07:26:40.928Z,2.20
2022-07-29T07:29:08.683Z,2.10
2022-07-29T07:31:38.776Z,2.00
2022-07-29T07:34:06.984Z,2.20
2022-07-29T07:36:34.535Z,1.90
2022-07-29T07:39:02.100Z,2.30
2022-07-29T07:41:32.499Z,1.80
2022-07-29T07:44:00.900Z,1.60
2022-07-29T07:46:30.001Z,2.00
2022-07-29T07:48:59.811Z,1.50
2022-07-29T07:51:28.395Z,2.00
2022-07-29T07:53:55.661Z,1.80
2022-07-29T07:56:24.943Z,2.10
2022-07-29T07:58:53.963Z,1.90
2022-07-29T08:01:23.585Z,1.80
2022-07-29T08:03:52.849Z,1.90
2022-07-29T08:06:20.342Z,2.10
2022-07-29T08:08:47.863Z,2.40
2022-07-29T08:11:15.525Z,2.60
2022-07-29T08:13:43.719Z,2.90
2022-07-29T08:16:16.192Z,2.90
2022-07-29T08:18:45.024Z,2.50
2022-07-29T08:21:14.864Z,2.10
2022-07-29T08:23:54.548Z,7.20
2022-07-29T08:28:55.171Z,3.10
2022-07-29T08:31:22.948Z,3.10
2022-07-29T08:33:50.696Z,2.90
2022-07-29T08:36:19.744Z,3.70
2022-07-29T08:38:47.455Z,2.80
2022-07-29T08:41:15.115Z,2.80
2022-07-29T08:43:42.785Z,2.60
2022-07-29T08:46:10.268Z,4.20
2022-07-29T08:48:41.556Z,4.20
2022-07-29T08:51:09.488Z,3.10
2022-07-29T08:53:39.262Z,2.80
2022-07-29T08:56:06.412Z,2.80
2022-07-29T08:58:36.751Z,2.40
2022-07-29T09:01:07.531Z,2.50
2022-07-29T09:03:45.531Z,2.50
2022-07-29T09:06:18.257Z,3.10
2022-07-29T09:08:46.025Z,2.70
2022-07-29T09:11:14.402Z,3.60
2022-07-29T09:13:41.793Z,3.60
2022-07-29T09:16:10.779Z,2.90
2022-07-29T09:18:42.619Z,6.30
2022-07-29T09:21:32.714Z,4.80
2022-07-29T09:24:12.861Z,4.70
2022-07-29T09:26:41.954Z,2.70
2022-07-29T09:29:16.116Z,5.10
2022-07-29T09:31:50.990Z,4.30
2022-07-29T09:34:25.633Z,12.10
2022-07-29T09:36:54.254Z,7.50
2022-07-29T09:39:32.208Z,7.30
2022-07-29T09:42:02.781Z,11.60
2022-07-29T09:44:59.889Z,3.80
2022-07-29T09:47:49.862Z,3.10
2022-07-29T09:50:24.603Z,2.00
2022-07-29T09:52:52.777Z,2.40
2022-07-29T09:55:20.264Z,2.30
2022-07-29T09:57:47.695Z,2.20
2022-07-29T10:00:18.305Z,5.20
2022-07-29T10:02:47.852Z,4.50
2022-07-29T10:05:23.578Z,3.10
2022-07-29T10:07:57.659Z,2.00
2022-07-29T10:10:27.774Z,2.30
2022-07-29T10:13:07.236Z,3.40
2022-07-29T10:15:41.369Z,4.20
2022-07-29T10:18:09.025Z,3.70
2022-07-29T10:20:41.308Z,3.60
2022-07-29T10:23:09.609Z,6.50
2022-07-29T10:25:38.157Z,6.50
2022-07-29T10:28:06.229Z,4.30
2022-07-29T10:30:40.649Z,1.90
2022-07-29T10:33:25.261Z,4.10
2022-07-29T10:36:13.143Z,2.80
2022-07-29T10:39:06.428Z,4.70
2022-07-29T10:41:47.401Z,1.90
2022-07-29T10:44:19.306Z,1.60
2022-07-29T10:46:51.403Z,1.50
2022-07-29T10:49:27.434Z,1.80
2022-07-29T10:51:56.889Z,1.70
2022-07-29T10:54:42.479Z,1.50
2022-07-29T10:57:15.445Z,1.80
2022-07-29T11:00:09.857Z,3.00
2022-07-29T11:02:43.776Z,2.80
2022-07-29T11:05:15.599Z,1.60
2022-07-29T11:08:19.695Z,1.30
2022-07-29T11:10:49.523Z,1.30
2022-07-29T11:13:48.996Z,3.20
2022-07-29T11:16:25.190Z,4.30
2022-07-29T11:19:11.605Z,4.00
2022-07-29T11:21:54.761Z,1.20
2022-07-29T11:24:30.286Z,1.40
2022-07-29T11:27:09.614Z,1.30
2022-07-29T11:29:49.797Z,1.60
2022-07-29T11:32:38.604Z,1.80
2022-07-29T11:35:37.919Z,1.30
2022-07-29T11:38:28.335Z,2.10
2022-07-29T11:41:18.404Z,1.50
2022-07-29T11:43:47.317Z,1.50
2022-07-29T11:49:44.520Z,1.30
2022-07-29T11:52:12.337Z,1.20
2022-07-29T11:54:58.264Z,1.70
2022-07-29T11:57:36.346Z,1.20
2022-07-29T12:00:26.560Z,1.40
2022-07-29T12:02:56.166Z,1.50
2022-07-29T12:05:36.371Z,1.20
2022-07-29T12:07:02.023Z,1.70
2022-07-29T12:08:12.713Z,1.40
2022-07-29T12:10:44.923Z,1.20
2022-07-29T12:13:15.244Z,1.70
2022-07-29T12:16:00.093Z,7.30
2022-07-29T12:18:27.904Z,2.40
2022-07-29T12:20:59.637Z,1.80
2022-07-29T12:23:35.076Z,1.50
2022-07-29T12:26:07.246Z,1.50
2022-07-29T12:28:39.322Z,1.30
2022-07-29T12:31:14.364Z,5.10
2022-07-29T12:34:01.678Z,6.60
2022-07-29T12:36:29.434Z,3.30
2022-07-29T12:38:57.404Z,1.70
2022-07-29T12:41:24.967Z,1.50
2022-07-29T12:43:56.009Z,1.60
2022-07-29T12:46:24.265Z,1.40
2022-07-29T12:48:55.863Z,1.30
2022-07-29T12:51:37.480Z,1.40
2022-07-29T12:54:16.299Z,1.40
2022-07-29T12:56:45.139Z,1.70
2022-07-29T12:59:22.941Z,11.90
2022-07-29T13:02:00.401Z,5.20
2022-07-29T13:04:33.520Z,1.80
2022-07-29T13:07:07.642Z,1.50
2022-07-29T13:09:39.699Z,1.60
2022-07-29T13:12:11.562Z,1.90
2022-07-29T13:14:44.892Z,1.80
2022-07-29T13:17:17.343Z,1.60
2022-07-29T13:19:48.574Z,4.40
2022-07-29T13:22:17.775Z,1.70
2022-07-29T13:24:49.942Z,3.10
2022-07-29T13:27:18.521Z,1.60
2022-07-29T13:29:45.776Z,2.00
2022-07-29T13:32:14.475Z,1.50
2022-07-29T13:34:44.484Z,4.50
2022-07-29T13:37:14.189Z,2.70
2022-07-29T13:39:42.476Z,5.00
2022-07-29T13:42:20.372Z,2.60
2022-07-29T13:44:51.716Z,4.50
2022-07-29T13:47:20.096Z,7.30
2022-07-29T13:49:49.089Z,2.40
2022-07-29T13:52:16.647Z,2.00
2022-07-29T13:54:44.438Z,2.00
2022-07-29T13:57:12.057Z,1.90
2022-07-29T13:59:40.864Z,1.90
2022-07-29T14:02:08.540Z,2.00
2022-07-29T14:04:35.846Z,2.20
2022-07-29T14:08:18.088Z,1.90
2022-07-29T14:10:45.852Z,1.90
2022-07-29T14:13:25.252Z,2.10
2022-07-29T14:15:53.371Z,2.30
2022-07-29T14:18:20.819Z,2.60
2022-07-29T14:20:48.071Z,3.20
2022-07-29T14:23:16.203Z,2.50
2022-07-29T14:25:44.483Z,2.50
2022-07-29T14:28:11.980Z,1.90
2022-07-29T14:30:42.412Z,2.70
2022-07-29T14:33:09.673Z,2.40
2022-07-29T14:35:37.013Z,3.00
2022-07-29T14:38:04.707Z,2.20
2022-07-29T14:40:33.234Z,4.20
2022-07-29T14:43:00.512Z,2.50
2022-07-29T14:45:29.641Z,2.30
2022-07-29T14:47:57.470Z,2.60
2022-07-29T14:50:31.368Z,2.80
2022-07-29T14:53:00.822Z,2.30
2022-07-29T14:55:28.246Z,2.10
2022-07-29T14:58:03.391Z,2.90
2022-07-29T15:00:38.209Z,2.40
2022-07-29T15:03:06.859Z,3.10
2022-07-29T15:05:38.760Z,4.90
2022-07-29T15:08:06.112Z,3.80
2022-07-29T15:10:33.470Z,3.50
2022-07-29T15:13:00.717Z,3.40
2022-07-29T15:15:28.686Z,2.80
2022-07-29T15:17:56.040Z,3.50
2022-07-29T15:20:27.437Z,2.50
2022-07-29T15:22:56.805Z,2.90
2022-07-29T15:25:24.925Z,9.80
2022-07-29T15:27:59.088Z,3.00
2022-07-29T15:30:33.661Z,2.40
2022-07-29T15:35:29.747Z,3.30
2022-07-29T15:37:57.100Z,2.50
2022-07-29T15:40:24.454Z,2.40
2022-07-29T15:42:51.973Z,6.90
2022-07-29T15:45:19.279Z,2.20
2022-07-29T15:47:46.519Z,3.50
2022-07-29T15:50:17.089Z,2.40
2022-07-29T15:52:44.407Z,3.20
2022-07-29T15:55:11.757Z,3.90
2022-07-29T15:57:39.216Z,2.40
2022-07-29T16:00:07.595Z,3.80
2022-07-29T16:02:36.590Z,2.70
2022-07-29T16:05:04.556Z,8.70
2022-07-29T16:07:37.032Z,6.30
2022-07-29T16:10:04.958Z,4.60
2022-07-29T16:12:32.571Z,7.20
2022-07-29T16:15:00.047Z,4.70
2022-07-29T16:17:28.113Z,7.10
2022-07-29T16:19:55.958Z,8.50
2022-07-29T16:22:23.312Z,4.60
2022-07-29T16:24:50.671Z,8.20
2022-07-29T16:27:17.917Z,5.20
2022-07-29T16:29:47.321Z,3.80
2022-07-29T16:32:14.573Z,5.60
2022-07-29T16:34:49.820Z,5.20
2022-07-29T16:37:17.269Z,8.30
2022-07-29T16:39:44.625Z,7.80
2022-07-29T16:42:25.742Z,5.80
2022-07-29T16:45:01.758Z,3.70
2022-07-29T16:47:30.284Z,4.30
2022-07-29T16:49:57.599Z,4.80
2022-07-29T16:52:24.950Z,3.60
2022-07-29T16:54:53.462Z,3.80
2022-07-29T16:57:20.888Z,3.70
2022-07-29T16:59:50.351Z,2.40
2022-07-29T17:02:17.852Z,2.70
2022-07-29T17:04:45.520Z,4.00
2022-07-29T17:07:13.179Z,3.60
2022-07-29T17:09:40.434Z,3.90
2022-07-29T17:12:08.291Z,4.40
2022-07-29T17:14:35.650Z,3.00
2022-07-29T17:17:03.284Z,4.00
2022-07-29T17:19:34.047Z,3.80
2022-07-29T17:22:12.611Z,3.00
2022-07-29T17:24:44.970Z,4.50
2022-07-29T17:27:12.289Z,3.20
2022-07-29T17:29:39.648Z,4.50
2022-07-29T17:32:08.050Z,4.40
2022-07-29T17:34:39.484Z,4.50
2022-07-29T17:37:07.856Z,4.70
2022-07-29T17:39:36.029Z,7.50
2022-07-29T17:42:04.609Z,9.50
2022-07-29T17:44:36.075Z,5.60
2022-07-29T17:47:05.185Z,9.00
2022-07-29T17:49:33.226Z,4.70
2022-07-29T17:52:04.086Z,4.60
2022-07-29T17:54:33.238Z,7.50
2022-07-29T17:57:01.060Z,9.80
2022-07-29T17:59:28.696Z,7.30
2022-07-29T18:01:55.982Z,11.50
2022-07-29T18:04:23.909Z,7.80
2022-07-29T18:06:51.160Z,8.60
2022-07-29T18:09:18.825Z,7.90
2022-07-29T18:11:46.706Z,6.60
2022-07-29T18:14:14.249Z,7.30
2022-07-29T18:16:41.689Z,6.70
2022-07-29T18:19:09.061Z,4.20
2022-07-29T18:21:43.350Z,7.90
2022-07-29T18:24:19.642Z,9.80
2022-07-29T18:26:47.103Z,10.60
2022-07-29T18:29:14.356Z,9.80
2022-07-29T18:31:41.710Z,10.20
2022-07-29T18:34:10.862Z,10.40
2022-07-29T18:36:38.157Z,15.20
2022-07-29T18:39:05.434Z,17.60
2022-07-29T18:41:32.866Z,23.10
2022-07-29T18:44:00.159Z,15.40
2022-07-29T18:46:27.509Z,14.70
2022-07-29T18:48:55.948Z,7.60
2022-07-29T18:51:23.329Z,3.90
2022-07-29T18:53:50.561Z,3.50
2022-07-29T18:56:17.811Z,3.80
2022-07-29T18:58:45.067Z,3.70
2022-07-29T19:01:16.735Z,3.10
2022-07-29T19:03:44.485Z,3.90
2022-07-29T19:06:11.841Z,2.80
2022-07-29T19:08:41.207Z,2.90
2022-07-29T19:11:08.698Z,3.50
2022-07-29T19:13:37.598Z,3.20
2022-07-29T19:16:08.181Z,2.70
2022-07-29T19:18:35.382Z,3.00
2022-07-29T19:21:02.624Z,1.90
2022-07-29T19:23:30.082Z,1.70
2022-07-29T19:25:57.947Z,2.00
2022-07-29T19:28:25.819Z,2.50
2022-07-29T19:30:53.100Z,2.10
2022-07-29T19:33:21.355Z,2.40
2022-07-29T19:35:54.314Z,2.40
2022-07-29T19:38:22.420Z,5.30
2022-07-29T19:40:49.655Z,5.90
2022-07-29T19:43:50.722Z,5.20
2022-07-29T19:46:04.303Z,4.20
2022-07-29T19:48:31.789Z,4.40
2022-07-29T19:50:59.039Z,2.80
2022-07-29T19:53:26.395Z,2.70
2022-07-29T19:55:53.544Z,3.00
2022-07-29T19:58:22.509Z,2.40
2022-07-29T20:00:55.969Z,2.50
2022-07-29T20:03:23.397Z,2.70
2022-07-29T20:05:52.807Z,2.40
2022-07-29T20:08:20.164Z,2.30
2022-07-29T20:10:47.408Z,2.00
2022-07-29T20:13:14.797Z,2.20
2022-07-29T20:15:42.029Z,2.40
2022-07-29T20:18:09.364Z,2.20
2022-07-29T20:20:36.630Z,2.50
2022-07-29T20:23:04.181Z,2.20
2022-07-29T20:25:31.532Z,2.20
2022-07-29T20:27:58.990Z,2.20
2022-07-29T20:30:26.450Z,1.90
2022-07-29T20:32:57.614Z,2.00
2022-07-29T20:35:25.051Z,2.30
2022-07-29T20:37:56.481Z,1.90
2022-07-29T20:40:25.516Z,2.10
2022-07-29T20:42:54.192Z,2.00
2022-07-29T20:45:22.348Z,1.90
2022-07-29T20:47:51.210Z,1.50
2022-07-29T20:50:19.933Z,2.20
2022-07-29T20:52:47.518Z,2.20
2022-07-29T20:55:14.741Z,2.20
2022-07-29T20:57:43.809Z,1.80
2022-07-29T21:00:12.444Z,2.10
2022-07-29T21:02:39.855Z,2.10
2022-07-29T21:05:07.472Z,2.10
2022-07-29T21:07:34.704Z,2.10
2022-07-29T21:10:02.142Z,2.00
2022-07-29T21:12:30.438Z,2.00
2022-07-29T21:14:59.951Z,2.20
2022-07-29T21:17:27.428Z,1.90
2022-07-29T21:19:55.867Z,2.10
2022-07-29T21:22:23.420Z,2.50
2022-07-29T21:24:50.881Z,2.20
2022-07-29T21:27:38.127Z,2.00
2022-07-29T21:30:08.062Z,2.20
2022-07-29T21:32:35.446Z,2.00
2022-07-29T21:35:02.926Z,2.30
2022-07-29T21:37:42.817Z,2.30
2022-07-29T21:40:11.057Z,2.30
2022-07-29T21:42:38.405Z,2.60
2022-07-29T21:45:06.617Z,2.00
2022-07-29T21:47:33.936Z,2.00
2022-07-29T21:50:01.298Z,2.30
2022-07-29T21:52:28.874Z,2.30
2022-07-29T21:54:56.306Z,2.00
2022-07-29T21:57:23.665Z,2.10
2022-07-29T21:59:51.022Z,1.90
2022-07-29T22:02:18.311Z,1.90
2022-07-29T22:04:45.776Z,2.10
2022-07-29T22:07:13.385Z,2.40
2022-07-29T22:09:40.758Z,2.20
2022-07-29T22:12:08.200Z,2.30
2022-07-29T22:14:35.758Z,2.80
2022-07-29T22:17:03.419Z,5.90
2022-07-29T22:19:30.876Z,17.20
2022-07-29T22:21:58.349Z,14.10
2022-07-29T22:24:25.586Z,8.20
2022-07-29T22:26:52.841Z,4.80
2022-07-29T22:29:20.499Z,4.30
2022-07-29T22:31:47.752Z,4.40
2022-07-29T22:34:15.331Z,2.30
2022-07-29T22:36:43.999Z,2.10
2022-07-29T22:39:11.289Z,2.70
2022-07-29T22:41:42.913Z,2.20
2022-07-29T22:44:10.267Z,1.80
2022-07-29T22:46:37.747Z,2.40
2022-07-29T22:49:08.281Z,2.10
2022-07-29T22:51:36.221Z,2.30
2022-07-29T22:54:04.134Z,2.50
2022-07-29T22:56:31.437Z,2.40
2022-07-29T22:58:58.737Z,2.40
2022-07-29T23:01:37.465Z,1.90
2022-07-29T23:04:06.666Z,2.20
2022-07-29T23:06:34.164Z,2.00
2022-07-29T23:09:01.439Z,1.90
2022-07-29T23:11:28.773Z,2.00
2022-07-29T23:13:56.126Z,2.00
2022-07-29T23:16:26.441Z,1.90
2022-07-29T23:18:55.240Z,1.90
2022-07-29T23:21:22.703Z,2.30
2022-07-29T23:23:50.059Z,1.60
2022-07-29T23:26:17.410Z,1.80
2022-07-29T23:28:45.376Z,1.70
2022-07-29T23:31:13.899Z,2.20
2022-07-29T23:33:41.966Z,2.20
2022-07-29T23:36:09.282Z,2.00
2022-07-29T23:38:41.050Z,2.20
2022-07-29T23:41:10.065Z,2.00
2022-07-29T23:43:39.061Z,2.40
2022-07-29T23:46:06.743Z,1.70
2022-07-29T23:48:37.223Z,1.70
2022-07-29T23:51:04.470Z,2.10
2022-07-29T23:53:32.388Z,2.50
2022-07-29T23:55:59.792Z,2.40
2022-07-29T23:58:27.254Z,2.10
